»·PEaware :: DAL494 KJFK-KEWR

DAL494 :: KJFK-KEWR

FLIGHT INFORMATION

Flight Status: Arrived
Operator:
Delta Air Lines
More flights by this operator :: More flights under this callsign
Pilot: Tamer M. (30101)
Aircraft: BOEING 737-700
(B737)
More flights by this aircraft type
Origin: KJFK Kennedy Intl
United States
Destination: KEWR Newark Intl
United States
More flights between these airports :: More routes between these airports
Route: JFK5 V16 DIXIE V276 RBV V249 SBJ
File this flight plan on PilotEdge
Remarks:
Altitude:
(Current/Filed)
6,000ft
Speed:
(Current/Filed)
276kts
Departed: 07-Dec-22 11:07 AM
Arrived: 07-Dec-22 11:58 AM
Distance/Time
Traveled:
18nm/0:51
Distance/Time
To Go:
Arrived

Flight Plot

Page will automatically refresh every two minutes.

Flight plan parsing failed; only flown route is shown


Map Options




Map Legend


Flown Route
Filed Route
Departure Airport
Arrival Airport
Navaid (VOR, NDB)
Fix

Horizontal Profiles

Position Reports

Time Latitude Longitude Heading Altitude Ground
Speed
07-Dec-22 10:39 40.641244 -73.792186 326 19ft 0kts
07-Dec-22 10:40 40.641244 -73.792186 326 19ft 0kts
07-Dec-22 10:41 40.641244 -73.792186 326 19ft 0kts
07-Dec-22 10:42 40.641244 -73.792186 326 19ft 0kts
07-Dec-22 10:43 40.641244 -73.792186 326 19ft 0kts
07-Dec-22 10:44 40.641244 -73.792186 326 19ft 0kts
07-Dec-22 10:45 40.641244 -73.792186 326 19ft 0kts
07-Dec-22 10:46 40.641244 -73.792186 326 19ft 0kts
07-Dec-22 10:47 40.641244 -73.792186 326 19ft 0kts
07-Dec-22 10:48 40.641244 -73.792186 326 19ft 0kts
07-Dec-22 10:49 40.641244 -73.792186 326 19ft 0kts
07-Dec-22 10:50 40.640907 -73.791897 325 21ft 2kts
07-Dec-22 10:51 40.640737 -73.791746 243 22ft 0kts
07-Dec-22 10:52 40.640737 -73.791746 243 22ft 0kts
07-Dec-22 10:53 40.640737 -73.791746 243 22ft 0kts
07-Dec-22 10:54 40.640737 -73.791746 243 22ft 0kts
07-Dec-22 10:55 40.640737 -73.791746 243 22ft 0kts
07-Dec-22 10:56 40.640737 -73.791746 243 22ft 0kts
07-Dec-22 10:57 40.640665 -73.794874 302 19ft 17kts
07-Dec-22 10:58 40.643432 -73.799829 301 19ft 15kts
07-Dec-22 10:59 40.645582 -73.804555 301 19ft 17kts
07-Dec-22 11:00 40.648601 -73.811208 300 19ft 24kts
07-Dec-22 11:01 40.650104 -73.814808 265 19ft 0kts
07-Dec-22 11:02 40.649757 -73.815421 213 19ft 0kts
07-Dec-22 11:03 40.649478 -73.815648 210 19ft 4kts
07-Dec-22 11:04 40.649272 -73.815811 210 20ft 0kts
07-Dec-22 11:05 40.647671 -73.815235 119 21ft 13kts
07-Dec-22 11:06 40.631790 -73.782328 139 1771ft 149kts
07-Dec-22 11:07 40.587115 -73.743843 147 3959ft 256kts
07-Dec-22 11:08 40.524821 -73.691455 152 5007ft 269kts
07-Dec-22 11:09 40.461428 -73.722439 223 5002ft 252kts
07-Dec-22 11:10 40.413437 -73.786203 247 5028ft 248kts
07-Dec-22 11:11 40.396663 -73.876083 256 5999ft 253kts
07-Dec-22 11:12 40.345749 -73.934345 221 6005ft 253kts
07-Dec-22 11:13 40.322610 -74.019902 257 5053ft 245kts
07-Dec-22 11:14 40.307754 -74.106826 257 4071ft 245kts
07-Dec-22 11:15 40.293300 -74.193802 265 3082ft 241kts
07-Dec-22 11:16 40.338625 -74.233965 349 2999ft 205kts
07-Dec-22 11:17 40.394047 -74.247425 349 3017ft 189kts
07-Dec-22 11:18 40.444703 -74.260071 349 2996ft 177kts
07-Dec-22 11:19 40.493498 -74.272326 349 3013ft 178kts
07-Dec-22 11:20 40.540124 -74.261666 26 2922ft 183kts
07-Dec-22 11:21 40.585037 -74.233012 25 2075ft 176kts
07-Dec-22 11:22 40.624399 -74.208052 25 1270ft 130kts
07-Dec-22 11:23 40.656407 -74.187710 25 570ft 127kts
07-Dec-22 11:24 40.689827 -74.166474 25 1411ft 169kts
07-Dec-22 11:25 40.730915 -74.119774 60 3032ft 210kts
07-Dec-22 11:26 40.776293 -74.087420 348 3024ft 215kts
07-Dec-22 11:27 40.833299 -74.104109 347 3015ft 208kts
07-Dec-22 11:28 40.858840 -74.158650 258 3023ft 208kts
07-Dec-22 11:29 40.838418 -74.228794 211 3017ft 209kts
07-Dec-22 11:30 40.786528 -74.265056 207 3010ft 212kts
07-Dec-22 11:31 40.734114 -74.300930 207 3006ft 211kts
07-Dec-22 11:32 40.682347 -74.336371 207 3006ft 208kts
07-Dec-22 11:33 40.630882 -74.371620 207 3009ft 207kts
07-Dec-22 11:34 40.579774 -74.369678 147 3033ft 189kts
07-Dec-22 11:35 40.535873 -74.333067 147 3014ft 184kts
07-Dec-22 11:36 40.519917 -74.280143 58 2879ft 193kts
07-Dec-22 11:37 40.559289 -74.242425 13 2056ft 180kts
07-Dec-22 11:38 40.605189 -74.222007 23 1542ft 161kts
07-Dec-22 11:39 40.638473 -74.200000 30 953ft 127kts
07-Dec-22 11:40 40.669628 -74.178782 26 291ft 129kts
07-Dec-22 11:41 40.710788 -74.152953 26 2455ft 205kts
07-Dec-22 11:42 40.756142 -74.114668 350 2986ft 217kts
07-Dec-22 11:43 40.803447 -74.148166 277 3016ft 204kts
07-Dec-22 11:44 40.792481 -74.224905 251 3037ft 242kts
07-Dec-22 11:45 40.744268 -74.272065 207 2999ft 202kts
07-Dec-22 11:46 40.693310 -74.306959 207 3011ft 208kts
07-Dec-22 11:47 40.641851 -74.342186 207 3011ft 206kts
07-Dec-22 11:48 40.590957 -74.377041 207 3010ft 206kts
07-Dec-22 11:49 40.542982 -74.409500 198 2999ft 188kts
07-Dec-22 11:50 40.496715 -74.383461 147 3018ft 189kts
07-Dec-22 11:51 40.473997 -74.333718 46 3009ft 186kts
07-Dec-22 11:52 40.510356 -74.283701 48 3020ft 192kts
07-Dec-22 11:53 40.555352 -74.251578 25 2600ft 182kts
07-Dec-22 11:54 40.600133 -74.223401 25 1772ft 176kts
07-Dec-22 11:55 40.638676 -74.198969 25 932ft 125kts
07-Dec-22 11:56 40.669769 -74.179018 25 250ft 123kts
07-Dec-22 11:57 40.694370 -74.163679 22 24ft 28kts
07-Dec-22 11:58 40.695932 -74.164707 294 18ft 0kts
07-Dec-22 11:59 40.696818 -74.167237 280 17ft 0kts
07-Dec-22 12:00 40.696341 -74.169595 260 17ft 16kts
07-Dec-22 12:01 40.697651 -74.173293 217 20ft 13kts
07-Dec-22 12:02 40.697166 -74.174783 308 20ft 0kts
07-Dec-22 12:03 40.697166 -74.174783 308 20ft 0kts
07-Dec-22 12:04 40.697166 -74.174783 308 20ft 0kts

Navigation Log

Ident Type
Flight plan parsing failed, navigation log unavailable